Time;durP1;ratioP1;P1;durP2;ratioP2;P2;SDS_P1;SDS_P2;PMS_P1;PMS_P2;Temp;Humidity;BMP_temperature;BMP_pressure;BME280_temperature;BME280_humidity;BME280_pressure;Samples;Min_cycle;Max_cycle;Signal;HPM_P1;HPM_P2
2022/04/10 00:00:55;;;;;;;15.85;9.25;;;6.30;81.90;;;;;;5033179;28;20246;-86
2022/04/10 00:03:25;;;;;;;14.52;8.65;;;6.30;82.00;;;;;;5033374;28;20179;-85
2022/04/10 00:05:52;;;;;;;13.15;8.90;;;6.30;82.00;;;;;;5034484;28;20206;-86
2022/04/10 00:08:18;;;;;;;15.80;8.27;;;6.30;82.00;;;;;;5036782;28;20288;-86
2022/04/10 00:10:44;;;;;;;22.17;8.57;;;6.30;81.20;;;;;;5025609;28;20182;-85
2022/04/10 00:13:11;;;;;;;15.82;8.75;;;6.30;80.50;;;;;;5037506;28;20162;-85
2022/04/10 00:15:37;;;;;;;12.27;6.90;;;6.30;80.00;;;;;;5054973;28;20178;-85
2022/04/10 00:18:02;;;;;;;14.53;6.67;;;6.30;79.80;;;;;;5054946;28;20207;-85
2022/04/10 00:20:28;;;;;;;17.23;8.47;;;6.30;79.10;;;;;;5034345;28;20432;-86
2022/04/10 00:22:54;;;;;;;12.00;7.10;;;6.30;79.40;;;;;;5031093;28;20508;-86
2022/04/10 00:25:20;;;;;;;12.80;8.80;;;6.40;79.70;;;;;;5014740;28;20452;-86
2022/04/10 00:27:47;;;;;;;11.93;8.35;;;6.40;79.80;;;;;;5030938;28;20505;-86
2022/04/10 00:30:15;;;;;;;14.38;10.00;;;6.40;79.80;;;;;;5031093;28;20557;-86
2022/04/10 00:32:41;;;;;;;18.52;9.10;;;6.40;80.20;;;;;;5013876;28;20209;-86
2022/04/10 00:35:09;;;;;;;16.77;9.18;;;6.30;80.60;;;;;;5015809;28;20257;-86
2022/04/10 00:37:36;;;;;;;15.77;8.80;;;6.30;80.80;;;;;;5015978;28;20210;-86
2022/04/10 00:40:06;;;;;;;16.90;9.07;;;6.30;80.70;;;;;;5040576;28;20195;-86
2022/04/10 00:42:40;;;;;;;13.88;10.30;;;6.20;80.90;;;;;;5037379;28;20178;-86
2022/04/10 00:45:08;;;;;;;15.07;9.68;;;6.30;81.30;;;;;;5018084;28;20210;-86
2022/04/10 00:47:34;;;;;;;12.38;8.48;;;6.30;81.40;;;;;;5030960;28;20206;-86
2022/04/10 00:50:03;;;;;;;10.50;9.23;;;6.30;81.30;;;;;;5030578;28;20182;-86
2022/04/10 00:52:30;;;;;;;10.98;8.20;;;6.30;81.10;;;;;;5023635;28;20261;-86
2022/04/10 00:54:56;;;;;;;16.55;8.55;;;6.20;81.10;;;;;;4997381;28;20183;-86
2022/04/10 00:57:23;;;;;;;8.88;7.95;;;6.20;81.20;;;;;;4998242;28;20284;-86
2022/04/10 00:59:49;;;;;;;12.80;8.48;;;6.20;81.20;;;;;;4997954;28;20198;-86
2022/04/10 01:02:15;;;;;;;10.70;8.50;;;6.20;81.30;;;;;;4998042;28;20175;-86
2022/04/10 01:04:41;;;;;;;13.87;8.47;;;6.10;81.50;;;;;;5000156;28;20232;-86
2022/04/10 01:07:07;;;;;;;12.30;7.70;;;6.10;81.60;;;;;;5000422;28;20460;-86
2022/04/10 01:09:33;;;;;;;14.13;8.68;;;6.10;81.50;;;;;;4998524;28;20357;-86
2022/04/10 01:12:00;;;;;;;11.30;8.50;;;6.10;81.50;;;;;;4996507;28;20209;-86
2022/04/10 01:14:26;;;;;;;18.67;8.70;;;6.10;81.80;;;;;;4997168;28;20753;-86
2022/04/10 01:16:53;;;;;;;11.82;8.65;;;6.10;81.60;;;;;;4997136;28;20229;-86
2022/04/10 01:19:20;;;;;;;17.88;8.73;;;6.10;81.60;;;;;;5014325;28;20658;-86
2022/04/10 01:21:48;;;;;;;13.30;8.30;;;6.10;81.70;;;;;;4996650;28;20273;-86
2022/04/10 01:24:15;;;;;;;12.43;8.25;;;6.20;81.70;;;;;;5014664;28;20693;-86
2022/04/10 01:26:42;;;;;;;11.70;8.57;;;6.20;81.50;;;;;;4996439;28;20210;-86
2022/04/10 01:29:13;;;;;;;10.95;7.57;;;6.10;81.60;;;;;;4996551;28;20225;-87
2022/04/10 01:31:44;;;;;;;11.05;7.90;;;6.20;81.80;;;;;;5014048;28;20182;-86
2022/04/10 01:34:15;;;;;;;11.88;8.35;;;6.10;82.00;;;;;;4996654;28;20182;-86
2022/04/10 01:36:43;;;;;;;15.68;9.15;;;6.10;82.00;;;;;;4996941;28;20635;-86
2022/04/10 01:39:11;;;;;;;11.32;7.70;;;6.10;81.90;;;;;;5000190;28;20206;-86
2022/04/10 01:41:37;;;;;;;8.55;7.47;;;6.10;81.90;;;;;;4977382;28;20190;-86
2022/04/10 01:44:05;;;;;;;11.63;8.50;;;6.10;81.90;;;;;;4976601;28;20179;-86
2022/04/10 01:46:32;;;;;;;13.05;8.73;;;6.20;82.00;;;;;;4976993;28;20422;-86
2022/04/10 01:48:58;;;;;;;9.38;7.43;;;6.10;82.00;;;;;;4976703;28;20199;-86
2022/04/10 01:51:25;;;;;;;10.27;7.25;;;6.20;81.80;;;;;;4977110;28;20179;-86
2022/04/10 01:53:53;;;;;;;14.18;7.75;;;6.30;81.70;;;;;;5029197;28;20563;-86
2022/04/10 01:56:19;;;;;;;17.05;9.10;;;6.20;81.40;;;;;;5029280;28;20198;-86
2022/04/10 01:58:47;;;;;;;10.98;8.40;;;6.10;81.30;;;;;;5029016;28;20214;-86
2022/04/10 02:01:15;;;;;;;12.70;8.70;;;6.10;81.40;;;;;;5028984;28;20178;-86
2022/04/10 02:03:42;;;;;;;10.57;7.90;;;6.00;81.50;;;;;;5028172;28;20788;-86
2022/04/10 02:06:09;;;;;;;15.32;8.70;;;6.00;81.50;;;;;;5028885;28;20669;-86
2022/04/10 02:08:36;;;;;;;14.18;9.23;;;5.90;81.80;;;;;;5029238;28;20215;-86
2022/04/10 02:11:09;;;;;;;14.90;9.02;;;5.90;82.00;;;;;;5029740;28;20186;-86
2022/04/10 02:13:35;;;;;;;15.30;9.73;;;5.80;82.20;;;;;;5029035;28;20183;-86
2022/04/10 02:16:00;;;;;;;16.73;9.33;;;5.70;82.60;;;;;;5028919;28;20534;-86
2022/04/10 02:18:26;;;;;;;13.73;9.57;;;5.60;82.80;;;;;;5013587;28;20252;-86
2022/04/10 02:20:52;;;;;;;14.40;11.17;;;5.60;83.10;;;;;;5029168;28;20175;-86
2022/04/10 02:23:17;;;;;;;13.97;10.80;;;5.60;83.20;;;;;;5030088;28;20574;-86
2022/04/10 02:25:43;;;;;;;12.53;10.40;;;5.50;83.20;;;;;;5020360;28;20187;-86
2022/04/10 02:28:09;;;;;;;16.83;10.23;;;5.50;83.30;;;;;;5033352;28;20210;-86
2022/04/10 02:30:34;;;;;;;11.90;9.40;;;5.50;83.50;;;;;;4998372;28;20503;-86
2022/04/10 02:33:00;;;;;;;19.20;11.23;;;5.50;83.70;;;;;;4998320;28;20458;-86
2022/04/10 02:35:26;;;;;;;13.83;10.40;;;5.50;83.60;;;;;;4999167;28;20477;-86
2022/04/10 02:37:52;;;;;;;15.73;10.45;;;5.40;83.40;;;;;;5014409;28;20433;-86
2022/04/10 02:40:18;;;;;;;12.27;9.70;;;5.40;83.60;;;;;;4995979;28;20198;-86
2022/04/10 02:42:44;;;;;;;13.07;9.73;;;5.40;83.60;;;;;;5012208;28;20188;-86
2022/04/10 02:45:11;;;;;;;12.32;9.20;;;5.30;83.60;;;;;;5012000;28;20557;-86
2022/04/10 02:47:37;;;;;;;8.93;8.02;;;5.30;84.50;;;;;;4995576;28;20213;-86
2022/04/10 02:50:06;;;;;;;14.65;9.70;;;5.30;84.20;;;;;;5011861;28;20186;-85
2022/04/10 02:52:32;;;;;;;14.07;10.40;;;5.30;84.40;;;;;;5011691;28;20182;-86
2022/04/10 02:54:58;;;;;;;12.27;9.13;;;5.30;84.40;;;;;;4996143;28;20555;-86
2022/04/10 02:57:23;;;;;;;10.53;8.67;;;5.40;84.30;;;;;;4996092;28;20252;-86
2022/04/10 02:59:49;;;;;;;18.13;10.33;;;5.40;84.20;;;;;;4997690;28;20434;-86
2022/04/10 03:02:15;;;;;;;12.63;9.53;;;5.40;84.10;;;;;;5033460;28;20173;-86
2022/04/10 03:04:42;;;;;;;17.07;10.50;;;5.40;84.00;;;;;;5018353;28;20190;-86
2022/04/10 03:07:08;;;;;;;13.65;9.85;;;5.30;84.20;;;;;;5019226;28;20270;-85
2022/04/10 03:09:33;;;;;;;17.43;10.57;;;5.20;84.40;;;;;;5004130;28;20245;-86
2022/04/10 03:11:59;;;;;;;12.13;9.60;;;5.10;84.70;;;;;;5005508;28;20178;-86
2022/04/10 03:14:25;;;;;;;11.87;9.87;;;5.10;84.90;;;;;;5017080;28;20193;-86
2022/04/10 03:16:51;;;;;;;12.50;9.47;;;5.10;84.90;;;;;;4999101;28;20425;-86
2022/04/10 03:19:17;;;;;;;12.73;9.97;;;5.00;84.80;;;;;;5017801;28;20444;-86
2022/04/10 03:21:51;;;;;;;14.37;9.73;;;5.10;84.80;;;;;;5000521;28;20483;-86
2022/04/10 03:24:17;;;;;;;10.65;8.50;;;5.10;84.80;;;;;;4999521;28;20189;-87
2022/04/10 03:26:43;;;;;;;13.47;9.47;;;5.10;84.80;;;;;;5016700;28;20203;-86
2022/04/10 03:29:09;;;;;;;12.23;10.10;;;5.10;84.50;;;;;;4999583;28;20449;-86
2022/04/10 03:31:35;;;;;;;13.25;10.10;;;5.00;84.60;;;;;;5001205;28;20272;-86
2022/04/10 03:34:01;;;;;;;16.67;10.53;;;5.00;84.50;;;;;;5000030;28;20184;-86
2022/04/10 03:36:26;;;;;;;16.50;9.47;;;5.00;84.70;;;;;;4998525;28;20183;-86
2022/04/10 03:38:52;;;;;;;11.80;8.80;;;4.90;84.70;;;;;;5007990;28;20229;-86
2022/04/10 03:41:18;;;;;;;12.80;9.23;;;5.00;84.70;;;;;;4998883;28;20237;-86
2022/04/10 03:43:43;;;;;;;15.53;9.90;;;5.00;84.60;;;;;;4998390;28;20254;-86
2022/04/10 03:46:09;;;;;;;13.50;9.80;;;5.00;84.50;;;;;;4998520;28;20229;-85
2022/04/10 03:48:35;;;;;;;16.77;10.57;;;4.90;84.50;;;;;;5014983;28;20217;-86
2022/04/10 03:51:01;;;;;;;22.38;10.93;;;4.90;84.70;;;;;;5015951;28;20571;-86
2022/04/10 03:53:26;;;;;;;13.80;9.97;;;4.90;84.60;;;;;;5016196;28;20178;-86
2022/04/10 03:55:52;;;;;;;10.60;9.40;;;4.90;84.80;;;;;;5036742;28;20174;-86
2022/04/10 03:58:18;;;;;;;17.37;10.23;;;4.90;84.90;;;;;;5037256;28;20222;-86
2022/04/10 04:00:45;;;;;;;13.70;9.63;;;4.90;85.00;;;;;;5017261;28;20482;-86
2022/04/10 04:03:11;;;;;;;11.48;8.60;;;4.90;84.90;;;;;;5032096;28;20738;-86
2022/04/10 04:05:36;;;;;;;14.00;9.47;;;5.20;84.70;;;;;;5016810;28;20186;-85
2022/04/10 04:08:03;;;;;;;11.20;7.93;;;5.30;83.50;;;;;;4998691;28;20214;-86
2022/04/10 04:10:42;;;;;;;12.90;9.65;;;5.30;83.20;;;;;;5015583;28;20178;-86
2022/04/10 04:13:08;;;;;;;13.52;10.15;;;5.10;83.50;;;;;;4997644;28;20171;-86
2022/04/10 04:15:33;;;;;;;18.10;9.70;;;5.10;83.80;;;;;;5015721;28;20170;-86
2022/04/10 04:17:59;;;;;;;13.17;9.80;;;5.00;83.90;;;;;;4998328;28;20217;-86
2022/04/10 04:20:25;;;;;;;16.23;7.97;;;4.90;84.10;;;;;;4998119;28;20421;-86
2022/04/10 04:22:51;;;;;;;14.20;9.60;;;4.90;84.20;;;;;;4997654;28;20190;-86
2022/04/10 04:25:18;;;;;;;14.50;9.73;;;4.90;84.30;;;;;;4998012;28;20417;-86
2022/04/10 04:27:43;;;;;;;11.02;9.05;;;4.90;84.50;;;;;;4997002;28;20202;-86
2022/04/10 04:30:09;;;;;;;21.47;12.93;;;4.80;84.50;;;;;;4998203;28;20182;-86
2022/04/10 04:32:35;;;;;;;19.38;11.10;;;4.80;84.60;;;;;;4997563;28;20181;-86
2022/04/10 04:35:01;;;;;;;15.67;10.80;;;4.70;84.80;;;;;;4997761;28;20265;-86
2022/04/10 04:37:26;;;;;;;17.27;10.97;;;4.70;85.10;;;;;;4997393;28;20582;-87
2022/04/10 04:39:52;;;;;;;12.80;10.50;;;4.80;85.20;;;;;;5015315;28;20198;-86
2022/04/10 04:42:18;;;;;;;14.00;11.30;;;4.70;85.30;;;;;;5014769;28;20213;-86
2022/04/10 04:44:44;;;;;;;11.43;8.87;;;4.70;85.40;;;;;;5015143;28;20185;-86
2022/04/10 04:47:09;;;;;;;17.10;9.70;;;4.70;85.50;;;;;;5013699;28;20456;-86
2022/04/10 04:49:35;;;;;;;12.73;9.30;;;4.90;85.40;;;;;;5013893;28;20472;-86
2022/04/10 04:52:01;;;;;;;17.27;11.03;;;4.90;84.80;;;;;;5014541;28;20186;-86
2022/04/10 04:54:27;;;;;;;15.67;11.00;;;4.90;84.50;;;;;;4997679;28;20174;-86
2022/04/10 04:56:53;;;;;;;18.00;12.30;;;4.80;84.80;;;;;;4981175;28;20675;-86
2022/04/10 04:59:19;;;;;;;20.00;12.13;;;4.70;85.40;;;;;;4997358;28;20302;-86
2022/04/10 05:01:57;;;;;;;12.67;10.50;;;4.60;85.40;;;;;;4997280;28;20251;-86
2022/04/10 05:04:23;;;;;;;19.08;12.35;;;4.60;85.70;;;;;;4997720;28;20209;-87
2022/04/10 05:06:48;;;;;;;16.07;11.97;;;4.50;85.90;;;;;;5014678;28;20238;-86
2022/04/10 05:09:14;;;;;;;22.50;11.37;;;4.50;86.00;;;;;;5001015;28;20199;-86
2022/04/10 05:11:40;;;;;;;21.90;13.00;;;4.60;86.20;;;;;;4997487;28;20175;-86
2022/04/10 05:14:06;;;;;;;15.37;11.23;;;4.60;86.20;;;;;;5015058;28;20191;-86
2022/04/10 05:16:31;;;;;;;20.33;11.90;;;4.60;86.30;;;;;;5014824;28;20948;-86
2022/04/10 05:18:57;;;;;;;16.57;11.47;;;4.60;86.30;;;;;;4981239;28;20202;-86
2022/04/10 05:21:23;;;;;;;16.50;12.90;;;4.60;86.30;;;;;;4997574;28;20709;-86
2022/04/10 05:23:49;;;;;;;17.20;12.57;;;4.60;86.30;;;;;;5000565;28;20182;-86
2022/04/10 05:26:15;;;;;;;16.60;11.93;;;4.60;86.30;;;;;;5003103;28;20441;-86
2022/04/10 05:28:41;;;;;;;17.37;12.20;;;4.70;86.50;;;;;;4998664;28;20219;-84
2022/04/10 05:31:07;;;;;;;16.87;13.53;;;4.60;86.40;;;;;;5000938;28;20544;-85
2022/04/10 05:33:34;;;;;;;22.37;12.30;;;4.60;86.40;;;;;;5018733;28;21095;-84
2022/04/10 05:36:00;;;;;;;17.88;11.50;;;4.60;86.50;;;;;;5002793;28;20413;-85
2022/04/10 05:38:26;;;;;;;16.58;11.10;;;4.70;86.40;;;;;;5001059;28;20202;-84
2022/04/10 05:40:54;;;;;;;15.40;10.70;;;4.70;86.40;;;;;;5001294;28;20608;-85
2022/04/10 05:43:21;;;;;;;14.95;11.18;;;4.90;86.40;;;;;;5002285;28;20181;-84
2022/04/10 05:45:48;;;;;;;22.83;12.70;;;5.00;86.20;;;;;;5002646;28;20210;-84
2022/04/10 05:48:14;;;;;;;17.27;10.00;;;5.00;85.60;;;;;;5003558;28;20761;-86
2022/04/10 05:50:39;;;;;;;11.80;9.90;;;5.20;85.30;;;;;;5017120;28;20258;-89
2022/04/10 05:53:05;;;;;;;13.37;9.80;;;5.70;83.80;;;;;;5021405;28;20437;-86
2022/04/10 05:55:40;;;;;;;15.47;8.03;;;6.30;81.70;;;;;;5030341;28;20933;-84
2022/04/10 05:58:06;;;;;;;10.30;8.65;;;7.00;79.10;;;;;;5014072;28;20260;-84
2022/04/10 06:00:32;;;;;;;11.07;7.73;;;7.50;76.10;;;;;;5020258;28;20246;-84
2022/04/10 06:03:02;;;;;;;12.40;7.88;;;7.80;74.60;;;;;;5016769;28;20452;-85
2022/04/10 06:05:28;;;;;;;10.98;7.55;;;8.70;72.50;;;;;;5015779;28;20183;-85
2022/04/10 06:07:54;;;;;;;9.60;7.60;;;8.70;70.20;;;;;;4981318;28;20218;-84
2022/04/10 06:10:20;;;;;;;12.40;8.27;;;8.30;70.10;;;;;;5015924;28;20182;-84
2022/04/10 06:12:45;;;;;;;10.77;8.67;;;9.50;69.10;;;;;;4997821;28;20522;-85
2022/04/10 06:15:12;;;;;;;16.67;8.10;;;9.40;66.60;;;;;;4997847;28;20413;-85
2022/04/10 06:17:37;;;;;;;9.57;8.00;;;9.60;66.90;;;;;;4997528;28;20558;-84
2022/04/10 06:20:04;;;;;;;14.50;8.40;;;10.70;64.70;;;;;;5016205;28;20177;-84
2022/04/10 06:22:29;;;;;;;11.77;8.10;;;11.90;62.00;;;;;;5014543;28;20461;-85
2022/04/10 06:24:55;;;;;;;18.33;7.80;;;11.90;58.60;;;;;;4997714;28;20182;-85
2022/04/10 06:27:21;;;;;;;10.17;7.83;;;11.20;58.80;;;;;;4997642;28;20293;-85
2022/04/10 06:29:47;;;;;;;10.97;8.23;;;11.20;59.10;;;;;;5015017;28;20210;-84
2022/04/10 06:32:14;;;;;;;9.77;7.38;;;11.90;58.50;;;;;;5000345;28;20175;-84
2022/04/10 06:34:40;;;;;;;11.40;7.28;;;12.70;57.00;;;;;;5000101;28;20179;-85
2022/04/10 06:37:07;;;;;;;7.50;6.47;;;12.80;55.50;;;;;;5016556;28;20182;-85
2022/04/10 06:39:34;;;;;;;9.75;6.63;;;13.30;54.20;;;;;;4983552;28;20211;-88
2022/04/10 06:42:00;;;;;;;11.50;7.28;;;13.20;52.30;;;;;;5019520;28;20162;-86
2022/04/10 06:44:25;;;;;;;12.97;7.80;;;13.00;52.90;;;;;;5000095;28;20273;-85
2022/04/10 06:46:51;;;;;;;9.33;7.50;;;12.60;53.40;;;;;;4997903;28;20202;-84
2022/04/10 06:49:18;;;;;;;9.50;8.43;;;12.50;54.10;;;;;;4998349;28;20619;-84
2022/04/10 06:51:44;;;;;;;9.23;6.60;;;11.70;55.30;;;;;;5015794;28;20449;-84
2022/04/10 06:54:09;;;;;;;10.40;7.10;;;11.50;57.10;;;;;;5030207;28;20205;-85
2022/04/10 06:56:35;;;;;;;13.40;6.70;;;11.20;57.60;;;;;;5015286;28;20417;-85
2022/04/10 06:59:02;;;;;;;7.93;7.10;;;11.10;58.40;;;;;;5029315;28;20229;-85
2022/04/10 07:01:28;;;;;;;13.88;8.85;;;10.70;59.10;;;;;;5029427;28;20210;-85
2022/04/10 07:03:53;;;;;;;12.60;8.43;;;10.40;60.10;;;;;;5014445;28;20246;-84
2022/04/10 07:06:19;;;;;;;17.53;8.60;;;10.00;61.40;;;;;;5031692;28;20174;-84
2022/04/10 07:08:45;;;;;;;10.93;7.63;;;9.70;63.00;;;;;;5030550;28;20211;-85
2022/04/10 07:11:11;;;;;;;15.33;8.87;;;9.80;63.30;;;;;;5035716;28;20179;-85
2022/04/10 07:13:36;;;;;;;11.53;8.20;;;9.50;63.70;;;;;;5038241;28;20190;-87
2022/04/10 07:16:02;;;;;;;12.67;8.70;;;9.20;65.10;;;;;;5013733;28;20183;-86
2022/04/10 07:18:28;;;;;;;10.33;6.90;;;8.80;65.10;;;;;;5028296;28;20260;-87
2022/04/10 07:20:54;;;;;;;10.97;7.70;;;8.80;65.90;;;;;;5012137;28;20186;-86
2022/04/10 07:23:45;;;;;;;10.80;7.30;;;8.60;66.20;;;;;;5027202;28;20483;-86
2022/04/10 07:26:13;;;;;;;13.85;8.98;;;8.60;66.40;;;;;;5028014;28;20174;-85
2022/04/10 07:28:40;;;;;;;9.23;7.72;;;8.70;66.60;;;;;;5027910;28;20215;-86
2022/04/10 07:31:08;;;;;;;15.30;9.43;;;8.70;66.20;;;;;;5027962;28;20202;-86
2022/04/10 07:33:34;;;;;;;12.82;9.48;;;8.70;66.80;;;;;;5003915;28;20182;-86
2022/04/10 07:36:00;;;;;;;13.38;8.00;;;8.70;66.40;;;;;;4995712;28;20175;-86
2022/04/10 07:38:26;;;;;;;11.63;8.07;;;8.80;66.50;;;;;;4986280;28;20294;-86
2022/04/10 07:40:52;;;;;;;12.47;7.67;;;8.80;66.40;;;;;;4975868;28;20198;-86
2022/04/10 07:43:18;;;;;;;18.10;9.83;;;8.80;66.30;;;;;;4975613;28;20191;-87
2022/04/10 07:48:28;;;;;;;9.43;7.57;;;8.60;64.90;;;;;;4993577;28;20476;-86
2022/04/10 07:50:56;;;;;;;16.23;9.33;;;8.80;65.00;;;;;;4976920;28;20273;-86
2022/04/10 07:53:21;;;;;;;17.40;7.93;;;9.10;64.40;;;;;;4991620;28;20238;-86
2022/04/10 07:55:48;;;;;;;9.50;7.73;;;9.00;64.10;;;;;;4995789;28;20206;-86
2022/04/10 07:58:14;;;;;;;15.07;8.23;;;9.00;64.10;;;;;;5013226;28;20721;-87
2022/04/10 08:00:39;;;;;;;11.60;7.30;;;9.00;64.30;;;;;;4995159;28;20334;-86
2022/04/10 08:03:05;;;;;;;12.23;8.37;;;9.10;64.20;;;;;;5013913;28;20183;-86
2022/04/10 08:05:31;;;;;;;12.60;6.37;;;9.20;63.60;;;;;;4998913;28;20182;-86
2022/04/10 08:07:57;;;;;;;11.57;8.60;;;9.30;62.70;;;;;;4999068;28;20469;-87
2022/04/10 08:10:24;;;;;;;8.73;6.65;;;9.20;62.00;;;;;;5014653;28;20181;-87
2022/04/10 08:12:50;;;;;;;11.73;7.22;;;9.30;61.10;;;;;;4998623;28;20201;-87
2022/04/10 08:15:16;;;;;;;11.70;4.97;;;9.40;60.70;;;;;;5017674;28;20186;-86
2022/04/10 08:17:41;;;;;;;6.90;3.70;;;9.10;59.00;;;;;;5002078;28;20198;-86
2022/04/10 08:20:09;;;;;;;12.33;4.60;;;8.70;58.10;;;;;;4999568;28;20206;-87
2022/04/10 08:22:36;;;;;;;9.25;4.43;;;9.00;58.20;;;;;;4998196;28;20225;-87
2022/04/10 08:25:04;;;;;;;8.40;5.15;;;8.90;58.30;;;;;;5017421;28;20182;-87
2022/04/10 08:27:31;;;;;;;8.52;4.85;;;8.90;58.90;;;;;;4998732;28;20221;-87
2022/04/10 08:29:58;;;;;;;10.15;5.45;;;9.00;59.60;;;;;;4999274;28;20202;-87
2022/04/10 08:32:23;;;;;;;8.45;3.28;;;9.20;59.70;;;;;;4999096;28;20175;-86
2022/04/10 08:34:50;;;;;;;11.50;5.90;;;8.80;57.40;;;;;;5000499;28;20245;-87
2022/04/10 08:37:16;;;;;;;6.57;2.90;;;8.80;57.40;;;;;;5002250;28;20956;-87
2022/04/10 08:39:43;;;;;;;4.65;3.65;;;8.90;57.50;;;;;;4982930;28;20206;-87
2022/04/10 08:42:09;;;;;;;4.50;3.20;;;8.80;57.00;;;;;;4999854;28;20183;-87
2022/04/10 08:44:36;;;;;;;8.38;3.50;;;8.80;57.70;;;;;;5015761;28;20178;-86
2022/04/10 08:47:03;;;;;;;5.55;3.85;;;8.90;57.40;;;;;;5020054;28;20229;-86
2022/04/10 08:49:31;;;;;;;6.75;4.10;;;9.10;57.40;;;;;;5015178;28;20199;-85
2022/04/10 08:51:59;;;;;;;9.50;3.90;;;9.00;57.50;;;;;;5007031;28;20612;-87
2022/04/10 08:54:26;;;;;;;5.90;4.13;;;9.10;56.80;;;;;;5016527;28;20175;-87
2022/04/10 08:56:52;;;;;;;6.90;3.92;;;9.40;56.10;;;;;;4997818;28;20178;-87
2022/04/10 08:59:19;;;;;;;7.20;3.78;;;9.10;55.30;;;;;;5014693;28;20698;-87
2022/04/10 09:01:46;;;;;;;6.43;3.78;;;9.10;54.50;;;;;;4997071;28;20179;-87
2022/04/10 09:04:14;;;;;;;9.52;4.78;;;9.40;52.90;;;;;;5015304;28;20233;-87
2022/04/10 09:06:40;;;;;;;11.32;5.40;;;9.40;52.50;;;;;;5014883;28;20179;-87
2022/04/10 09:09:18;;;;;;;5.95;3.80;;;9.50;52.20;;;;;;4996961;28;20601;-87
2022/04/10 09:11:44;;;;;;;7.25;4.45;;;9.40;53.90;;;;;;5014997;28;20181;-87
2022/04/10 09:14:10;;;;;;;10.40;6.77;;;9.10;53.60;;;;;;4998551;28;20183;-87
2022/04/10 09:16:36;;;;;;;10.32;5.68;;;8.90;54.40;;;;;;5015093;28;20266;-88
2022/04/10 09:19:08;;;;;;;5.65;4.68;;;9.00;55.20;;;;;;5030715;28;20222;-88
2022/04/10 09:21:43;;;;;;;8.50;5.68;;;9.00;55.40;;;;;;5030654;28;20270;-88
2022/04/10 09:24:14;;;;;;;9.35;4.95;;;9.00;55.20;;;;;;5030333;28;20181;-88
2022/04/10 09:26:47;;;;;;;9.75;5.50;;;8.90;54.40;;;;;;5030277;28;20174;-89
2022/04/10 09:29:15;;;;;;;7.43;5.55;;;8.90;53.20;;;;;;5031541;28;20221;-88
2022/04/10 09:31:41;;;;;;;5.45;4.40;;;8.90;54.10;;;;;;5030254;28;20185;-86
2022/04/10 09:34:08;;;;;;;8.77;4.57;;;9.00;54.10;;;;;;5014504;28;20182;-87
2022/04/10 09:36:45;;;;;;;8.35;5.65;;;9.10;54.10;;;;;;4997532;28;20232;-88
2022/04/10 09:39:34;;;;;;;9.75;5.15;;;9.70;53.90;;;;;;5015056;28;20198;-88
2022/04/10 09:42:06;;;;;;;7.70;4.90;;;10.10;53.70;;;;;;5014474;28;20745;-87
2022/04/10 09:44:34;;;;;;;12.35;5.20;;;10.10;53.60;;;;;;5013821;28;20178;-87
2022/04/10 09:47:05;;;;;;;8.88;5.20;;;10.40;52.20;;;;;;5013169;28;20199;-87
2022/04/10 09:49:36;;;;;;;8.85;5.53;;;10.60;52.50;;;;;;5014070;28;20206;-87
2022/04/10 09:52:11;;;;;;;10.23;5.70;;;10.00;51.30;;;;;;5015000;28;20269;-87
2022/04/10 09:54:38;;;;;;;6.72;5.43;;;9.80;52.20;;;;;;5016612;28;20154;-87
2022/04/10 09:57:13;;;;;;;5.03;4.53;;;9.90;51.80;;;;;;4998495;28;20178;-87
2022/04/10 09:59:47;;;;;;;8.20;5.18;;;9.80;51.10;;;;;;4997518;28;20221;-86
2022/04/10 10:02:15;;;;;;;6.30;4.30;;;9.90;51.10;;;;;;5014556;28;20162;-85
2022/04/10 10:04:42;;;;;;;8.65;3.92;;;10.40;49.50;;;;;;4998906;28;20214;-86
2022/04/10 10:07:14;;;;;;;11.80;5.47;;;10.40;49.90;;;;;;4998344;28;20264;-85
2022/04/10 10:09:41;;;;;;;6.95;4.75;;;10.10;50.00;;;;;;5002642;28;20194;-85
2022/04/10 10:12:08;;;;;;;9.15;4.97;;;10.00;50.90;;;;;;5005897;28;20269;-86
2022/04/10 10:14:35;;;;;;;7.68;4.78;;;10.30;50.50;;;;;;4998056;28;20178;-86
2022/04/10 10:17:06;;;;;;;6.55;5.43;;;10.20;49.50;;;;;;5015017;28;20210;-86
2022/04/10 10:19:34;;;;;;;6.88;4.57;;;10.10;51.10;;;;;;5014047;28;20788;-86
2022/04/10 10:22:07;;;;;;;7.75;4.82;;;10.20;50.10;;;;;;4996403;28;20206;-86
2022/04/10 10:25:03;;;;;;;8.45;6.00;;;10.60;50.00;;;;;;5014110;28;20167;-86
2022/04/10 10:27:35;;;;;;;8.95;6.05;;;10.70;49.90;;;;;;4980780;28;20225;-86
2022/04/10 10:30:27;;;;;;;8.60;6.35;;;11.00;48.60;;;;;;5026322;28;20360;-86
2022/04/10 10:33:09;;;;;;;8.25;6.45;;;11.50;47.70;;;;;;4998863;28;20253;-86
2022/04/10 10:35:43;;;;;;;8.23;5.40;;;11.50;47.70;;;;;;5021492;28;20210;-87
2022/04/10 10:38:26;;;;;;;6.47;5.55;;;11.00;47.70;;;;;;4998279;28;20206;-87
2022/04/10 10:41:07;;;;;;;8.05;5.53;;;10.60;47.00;;;;;;4997102;28;20406;-87
2022/04/10 10:43:33;;;;;;;7.63;5.00;;;10.40;47.60;;;;;;5014944;28;20322;-87
2022/04/10 10:45:59;;;;;;;8.57;5.80;;;10.40;48.20;;;;;;5016282;28;20302;-87
2022/04/10 10:48:38;;;;;;;11.80;6.53;;;10.30;48.30;;;;;;5017177;28;20460;-87
2022/04/10 10:51:13;;;;;;;6.47;5.72;;;10.50;47.60;;;;;;5020009;28;20174;-86
2022/04/10 10:53:46;;;;;;;14.93;6.78;;;10.60;48.20;;;;;;5001114;28;20552;-87
2022/04/10 10:56:20;;;;;;;7.40;6.57;;;10.60;48.30;;;;;;4996774;28;20189;-86
2022/04/10 10:58:50;;;;;;;9.07;7.07;;;10.70;47.40;;;;;;5014180;28;20225;-86
2022/04/10 11:01:21;;;;;;;10.52;5.30;;;10.80;47.00;;;;;;4996406;28;20726;-86
2022/04/10 11:04:09;;;;;;;6.22;5.63;;;11.20;46.50;;;;;;5012900;28;20188;-86
2022/04/10 11:06:47;;;;;;;7.82;5.18;;;11.30;46.10;;;;;;4996074;28;20232;-87
2022/04/10 11:09:31;;;;;;;6.07;5.05;;;11.10;46.30;;;;;;4999781;28;20206;-86
2022/04/10 11:11:58;;;;;;;7.65;4.57;;;11.00;46.80;;;;;;5002396;28;20282;-86
2022/04/10 11:14:41;;;;;;;6.57;5.25;;;11.30;47.00;;;;;;4999083;28;20178;-86
2022/04/10 11:17:15;;;;;;;6.10;5.32;;;11.60;45.00;;;;;;4997249;28;20311;-86
2022/04/10 11:19:46;;;;;;;8.18;6.18;;;11.30;44.20;;;;;;4997277;28;20201;-86
2022/04/10 11:22:21;;;;;;;8.57;4.68;;;11.60;43.20;;;;;;4999477;28;20179;-87
2022/04/10 11:24:50;;;;;;;8.20;4.90;;;12.10;41.40;;;;;;5003446;28;20261;-87
2022/04/10 11:27:41;;;;;;;7.70;5.90;;;12.20;41.30;;;;;;5018766;28;20285;-86
2022/04/10 11:30:08;;;;;;;6.28;4.72;;;12.20;41.50;;;;;;5026678;28;20190;-87
2022/04/10 11:32:51;;;;;;;6.47;5.65;;;11.90;42.10;;;;;;5028704;28;20197;-86
2022/04/10 11:35:42;;;;;;;7.43;5.60;;;11.70;43.20;;;;;;5012881;28;20188;-87
2022/04/10 11:38:17;;;;;;;8.70;6.03;;;12.30;42.10;;;;;;5006207;28;20249;-87
2022/04/10 11:40:50;;;;;;;10.75;6.30;;;12.60;42.00;;;;;;5000168;28;20269;-87
2022/04/10 11:43:18;;;;;;;5.95;4.30;;;12.50;42.30;;;;;;4999336;28;20175;-87
2022/04/10 11:45:45;;;;;;;4.80;4.30;;;12.30;41.70;;;;;;4999416;28;20525;-87
2022/04/10 11:48:11;;;;;;;5.22;4.10;;;12.30;41.40;;;;;;4999180;28;20235;-87
2022/04/10 11:50:38;;;;;;;6.68;4.68;;;12.20;41.40;;;;;;4999058;28;20175;-87
2022/04/10 11:53:06;;;;;;;4.60;4.20;;;12.40;41.30;;;;;;4982861;28;20193;-87
2022/04/10 11:55:34;;;;;;;10.18;4.93;;;12.30;41.40;;;;;;5000112;28;20170;-87
2022/04/10 11:58:10;;;;;;;4.53;3.83;;;12.60;42.00;;;;;;4999877;28;20265;-87
2022/04/10 12:00:36;;;;;;;4.10;3.75;;;12.40;41.10;;;;;;4998684;28;20182;-87
2022/04/10 12:03:02;;;;;;;7.45;4.32;;;12.30;41.70;;;;;;4998860;28;20270;-87
2022/04/10 12:05:32;;;;;;;4.60;4.10;;;12.20;41.50;;;;;;5016321;28;20210;-87
2022/04/10 12:08:01;;;;;;;5.53;4.68;;;11.80;41.50;;;;;;5016363;28;20457;-87
2022/04/10 12:10:28;;;;;;;6.57;3.75;;;11.40;41.80;;;;;;4998617;28;20281;-87
2022/04/10 12:12:57;;;;;;;5.15;3.40;;;11.50;42.70;;;;;;4998116;28;20265;-87
2022/04/10 12:15:23;;;;;;;6.35;3.40;;;11.80;42.40;;;;;;4998437;28;20209;-87
2022/04/10 12:18:04;;;;;;;4.25;3.20;;;12.00;41.40;;;;;;4998105;28;20205;-87
2022/04/10 12:20:30;;;;;;;4.40;3.10;;;12.40;39.50;;;;;;5015770;28;20747;-86
2022/04/10 12:22:55;;;;;;;3.97;3.57;;;12.80;38.10;;;;;;4997695;28;20206;-87
2022/04/10 12:25:22;;;;;;;4.30;3.07;;;12.80;37.90;;;;;;5015485;28;20426;-87
2022/04/10 12:27:49;;;;;;;5.32;2.60;;;12.90;36.90;;;;;;4997964;28;20733;-87
2022/04/10 12:30:17;;;;;;;6.45;2.95;;;12.80;34.50;;;;;;4998088;28;20687;-87
2022/04/10 12:32:43;;;;;;;6.35;3.28;;;12.40;35.50;;;;;;4981993;28;20210;-87
2022/04/10 12:35:12;;;;;;;8.48;3.40;;;12.10;36.80;;;;;;4998227;28;20673;-88
2022/04/10 12:37:46;;;;;;;5.05;3.15;;;12.20;36.90;;;;;;5015796;28;20224;-87
2022/04/10 12:40:12;;;;;;;5.55;2.90;;;12.30;36.40;;;;;;5014750;28;20178;-87
2022/04/10 12:42:40;;;;;;;7.85;3.25;;;12.50;36.50;;;;;;5014868;28;20182;-88
2022/04/10 12:45:09;;;;;;;3.85;3.30;;;12.10;37.90;;;;;;5014205;28;20704;-87
2022/04/10 12:47:53;;;;;;;6.95;3.63;;;12.10;39.30;;;;;;5013793;28;20206;-87
2022/04/10 12:50:21;;;;;;;3.83;3.35;;;12.10;39.80;;;;;;5014872;28;20261;-87
2022/04/10 12:52:47;;;;;;;6.57;4.25;;;12.10;40.00;;;;;;5025066;28;20638;-87